Thunder radar more information blitzortung!


Radar de pluja more information rain snow radar


Visita la nostra xarxa de llocs de meteo:

Template documentation
and downloads

And another site



No particular awareness of the weather is required.    There are no Weather-warnings

Pagina Historial Weather Underground text

Diari Resum Novembre 5, 2017 Unitats:  Imperial    Mètric   Tant
« Previous Dia
SegĂźent Dia »
Diari Setmana Mensual Anual Personalitzada
  Maxima: Minima: Media:
Temperatura: 66.4 °F 45.1 °F 56.7 °F
Punt de rosada: 53.6 °F 32.9 °F 45.3 °F
Humitat: 92 % 48 % 68 %
Wind Speed: 13 mph 0 mph 4.2 mph
RĂ fegues de vent: 13 mph - -
Vent:- - WSW
Pression baro: 30.1 in 29.8 in -
Precipitacions: 0 in    
Historical Graphs
 
 
Dades de taula per Novembre 5, 2017
Temps Temperatura Punt de rosada Pression baro Vent Wind Speed RĂ fegues de vent Humitat Rainfall Rate (Hourly)
00:00 55.9 °F 53.6 °F 29.8 in Calm     92 % 0 in
00:05 55.8 °F 53.4 °F 29.8 in SW 1.6 mph 1.6 mph 92 % 0 in
00:10 55.8 °F 53.2 °F 29.8 in SW 2.3 mph 2.3 mph 91 % 0 in
00:15 55.6 °F 53.1 °F 29.8 in SW 2.3 mph 2.3 mph 91 % 0 in
00:20 55.6 °F 53.1 °F 29.8 in WSW 2.4 mph 2.4 mph 91 % 0 in
00:25 55.6 °F 53.1 °F 29.8 in SW 2.4 mph 2.4 mph 91 % 0 in
00:30 55.4 °F 52.9 °F 29.8 in WSW 2.3 mph 2.4 mph 91 % 0 in
00:35 55.4 °F 52.9 °F 29.8 in WSW 1.4 mph 1.4 mph 91 % 0 in
00:40 55.4 °F 52.9 °F 29.8 in WSW 1.6 mph 1.6 mph 91 % 0 in
00:46 55.4 °F 52.9 °F 29.8 in WSW 2.3 mph 2.3 mph 91 % 0 in
00:51 55.4 °F 52.9 °F 29.8 in West 2.3 mph 2.3 mph 91 % 0 in
00:56 55.4 °F 52.9 °F 29.8 in WSW 2.3 mph   91 % 0 in
01:01 55.2 °F 52.5 °F 29.8 in Calm     91 % 0 in
01:06 55.2 °F 52.9 °F 29.8 in Calm     92 % 0 in
01:11 55 °F 52.9 °F 29.8 in Calm     92 % 0 in
01:16 55 °F 52.9 °F 29.8 in Calm     92 % 0 in
01:21 55 °F 52.9 °F 29.8 in WSW 2.3 mph 2.3 mph 92 % 0 in
01:26 55 °F 52.9 °F 29.8 in WSW 1.2 mph   92 % 0 in
01:31 54.9 °F 52.3 °F 29.8 in WSW 2.3 mph 2.3 mph 91 % 0 in
01:36 54.9 °F 52.3 °F 29.8 in WSW 2.3 mph 2.3 mph 91 % 0 in
01:41 54.9 °F 52.3 °F 29.8 in WSW 2.3 mph 2.3 mph 91 % 0 in
01:51 55 °F 52.5 °F 29.8 in West 2.3 mph 2.3 mph 91 % 0 in
01:56 55 °F 52.5 °F 29.8 in WSW 2.3 mph 2.3 mph 91 % 0 in
02:01 55 °F 52.5 °F 29.8 in West 2.3 mph 2.3 mph 91 % 0 in
02:06 55 °F 52.5 °F 29.8 in Calm     91 % 0 in
02:11 54.9 °F 52.5 °F 29.8 in WSW 2.3 mph   92 % 0 in
02:16 55.2 °F 52.5 °F 29.8 in WSW 4.6 mph 4.6 mph 91 % 0 in
02:21 55.4 °F 52.5 °F 29.8 in West 3.5 mph 3.5 mph 90 % 0 in
02:26 55.4 °F 52.5 °F 29.8 in West 3.5 mph 3.5 mph 90 % 0 in
02:31 55.6 °F 52.7 °F 29.8 in WSW 3.5 mph 3.5 mph 90 % 0 in
02:36 55.4 °F 52.5 °F 29.8 in WSW 4.6 mph 4.6 mph 90 % 0 in
02:41 55.2 °F 52.3 °F 29.8 in West 2.3 mph 2.3 mph 90 % 0 in
02:46 55.4 °F 52.9 °F 29.8 in WSW 2.3 mph 2.3 mph 91 % 0 in
02:51 55.2 °F 52.5 °F 29.8 in WSW 2.3 mph 2.3 mph 91 % 0 in
02:56 55.2 °F 52.5 °F 29.8 in SW 2.3 mph 2.3 mph 91 % 0 in
03:01 55 °F 52.5 °F 29.8 in SSW 2.3 mph 2.3 mph 91 % 0 in
03:06 55 °F 52.5 °F 29.8 in West 2.3 mph 2.3 mph 91 % 0 in
03:11 55 °F 52.5 °F 29.8 in West 2.3 mph 2.3 mph 91 % 0 in
03:16 55.2 °F 52.3 °F 29.8 in West 4.6 mph 4.6 mph 90 % 0 in
03:21 55.2 °F 52.3 °F 29.8 in SW 2.4 mph 2.4 mph 90 % 0 in
03:26 55.2 °F 52.3 °F 29.8 in SW 3.5 mph 3.5 mph 90 % 0 in
03:31 55.4 °F 52.5 °F 29.8 in WSW 2.3 mph 2.3 mph 90 % 0 in
03:36 55.2 °F 52.3 °F 29.8 in West 2.3 mph 2.3 mph 90 % 0 in
03:41 55.2 °F 52.3 °F 29.8 in WSW 2.4 mph 2.4 mph 90 % 0 in
03:46 55.2 °F 52.3 °F 29.8 in Calm     90 % 0 in
03:51 55.2 °F 52.3 °F 29.8 in WSW 1.2 mph   90 % 0 in
03:56 55.2 °F 52.3 °F 29.8 in SW 1.6 mph   90 % 0 in
04:01 55.2 °F 52 °F 29.8 in SSW 1.2 mph   89 % 0 in
04:06 55.2 °F 52 °F 29.8 in SW 1.2 mph   89 % 0 in
04:12 55.2 °F 52 °F 29.8 in WNW 1.2 mph   89 % 0 in
04:19 55.2 °F 52 °F 29.8 in Calm     89 % 0 in
04:20 55.2 °F 52 °F 29.8 in Calm     89 % 0 in
04:21 55.2 °F 52 °F 29.9 in Calm     89 % 0 in
04:24 55.2 °F 52 °F 29.9 in Calm     89 % 0 in
04:26 55.2 °F 52 °F 29.9 in Calm     89 % 0 in
04:30 55.2 °F 51.6 °F 29.9 in WSW 0.9 mph   88 % 0 in
04:31 55.2 °F 51.6 °F 29.9 in WSW 1.2 mph   88 % 0 in
04:36 55.2 °F 51.6 °F 29.9 in WNW 1.2 mph 1.2 mph 88 % 0 in
04:41 55.2 °F 51.6 °F 29.9 in SW 1.2 mph   88 % 0 in
04:46 55.2 °F 51.6 °F 29.9 in WNW 2.3 mph 2.3 mph 88 % 0 in
04:51 55 °F 51.4 °F 29.9 in WNW 1.2 mph   88 % 0 in
04:56 55 °F 51.3 °F 29.9 in Calm     87 % 0 in
05:01 55 °F 51.3 °F 29.9 in WNW 1.2 mph   87 % 0 in
05:06 54.9 °F 51.1 °F 29.9 in Calm     87 % 0 in
05:11 54.9 °F 51.1 °F 29.9 in Calm     87 % 0 in
05:16 54.9 °F 51.1 °F 29.9 in WNW 1.4 mph 1.4 mph 87 % 0 in
05:21 54.9 °F 50.7 °F 29.9 in NW 1.6 mph   86 % 0 in
05:26 54.9 °F 50.7 °F 29.9 in Calm     86 % 0 in
05:31 54.7 °F 50.9 °F 29.9 in Calm     87 % 0 in
05:36 54.7 °F 50.9 °F 29.9 in Calm     87 % 0 in
05:41 54.9 °F 51.1 °F 29.9 in Calm     87 % 0 in
05:46 54.9 °F 50.7 °F 29.9 in ENE 2.3 mph 2.3 mph 86 % 0 in
05:51 54.7 °F 50.5 °F 29.9 in Calm     86 % 0 in
05:56 54.5 °F 50.7 °F 29.9 in NE 4.6 mph 4.6 mph 87 % 0 in
06:01 54.7 °F 50.9 °F 29.9 in NNE 2.3 mph   87 % 0 in
06:06 54.7 °F 50.9 °F 29.9 in North 4.6 mph 4.6 mph 87 % 0 in
06:11 54.7 °F 50.9 °F 29.9 in North 1.2 mph   87 % 0 in
06:16 54.5 °F 50.7 °F 29.9 in Calm     87 % 0 in
06:21 54.3 °F 50.5 °F 29.9 in Calm     87 % 0 in
06:26 54.1 °F 50.4 °F 29.9 in NW 1.2 mph   87 % 0 in
06:31 54.1 °F 50.4 °F 29.9 in NW 2.3 mph 2.3 mph 87 % 0 in
06:36 54.1 °F 50.4 °F 29.9 in Calm     87 % 0 in
06:41 54.1 °F 50.4 °F 29.9 in West 2.3 mph 2.3 mph 87 % 0 in
06:47 54.1 °F 50.4 °F 29.9 in WSW 3.1 mph 3.1 mph 87 % 0 in
06:52 54 °F 50.2 °F 29.9 in West 4.6 mph 4.6 mph 87 % 0 in
06:57 54 °F 50.2 °F 29.9 in Calm     87 % 0 in
07:02 53.8 °F 50 °F 29.9 in Calm     87 % 0 in
07:07 53.8 °F 50 °F 29.9 in NNE 1.2 mph   87 % 0 in
07:12 54 °F 50.2 °F 29.9 in West 4.3 mph 4.3 mph 87 % 0 in
07:17 54.1 °F 50 °F 29.9 in WSW 2.3 mph 2.3 mph 86 % 0 in
07:22 54.1 °F 49.6 °F 29.9 in SW 4.6 mph   85 % 0 in
07:27 54.1 °F 49.6 °F 29.9 in NNW 3.6 mph 3.6 mph 85 % 0 in
07:32 54.1 °F 49.6 °F 29.9 in NE 1.2 mph   85 % 0 in
07:37 54.3 °F 49.8 °F 29.9 in SW 2.3 mph 2.3 mph 85 % 0 in
07:42 54.3 °F 49.8 °F 29.9 in ENE 3.5 mph 3.5 mph 85 % 0 in
07:47 54.1 °F 49.6 °F 29.9 in WNW 2.9 mph 2.9 mph 85 % 0 in
07:52 54.1 °F 49.6 °F 29.9 in South 1.4 mph   85 % 0 in
07:57 54 °F 49.6 °F 29.9 in WNW 2.3 mph 2.3 mph 85 % 0 in
08:02 54 °F 49.6 °F 29.9 in NW 1.2 mph   85 % 0 in
08:07 53.8 °F 49.5 °F 29.9 in NNW 2.3 mph 2.3 mph 85 % 0 in
08:12 54 °F 49.6 °F 29.9 in West 3.5 mph 3.5 mph 85 % 0 in
08:17 54 °F 49.3 °F 29.9 in SSW 3.5 mph 3.5 mph 84 % 0 in
08:22 54 °F 49.3 °F 30 in West 3.5 mph 3.5 mph 84 % 0 in
08:27 54 °F 49.3 °F 30 in WNW 3.5 mph 3.5 mph 84 % 0 in
08:32 54 °F 49.3 °F 30 in West 2.9 mph 2.9 mph 84 % 0 in
08:37 54.1 °F 49.5 °F 30 in WSW 3.5 mph 3.5 mph 84 % 0 in
08:42 54.1 °F 49.1 °F 30 in Calm     83 % 0 in
08:47 54.1 °F 49.1 °F 30 in NNE 2 mph 2 mph 83 % 0 in
08:52 54.5 °F 49.5 °F 30 in ENE 1.6 mph 1.6 mph 83 % 0 in
08:57 55 °F 50.4 °F 30 in North 2.3 mph   84 % 0 in
09:02 55.2 °F 50.5 °F 30 in WSW 1.2 mph 1.2 mph 84 % 0 in
09:07 56.3 °F 51.4 °F 30 in NW 2.3 mph 2.3 mph 84 % 0 in
09:12 57.2 °F 52.3 °F 30 in North 1.6 mph 1.6 mph 84 % 0 in
09:17 57.7 °F 52.5 °F 30 in SSW 1.2 mph   83 % 0 in
09:22 57.6 °F 52.3 °F 30 in West 2.9 mph 2.9 mph 83 % 0 in
09:27 58.1 °F 52.5 °F 30 in WSW 3.1 mph   82 % 0 in
09:32 57.7 °F 52.3 °F 30 in ENE 6.9 mph 6.9 mph 82 % 0 in
09:37 58.3 °F 52.5 °F 30 in WSW 3.5 mph 3.5 mph 81 % 0 in
09:42 58.3 °F 52.2 °F 30 in SW 4.6 mph 4.6 mph 80 % 0 in
09:47 58.3 °F 52.2 °F 30 in West 3.5 mph 3.5 mph 80 % 0 in
09:52 58.1 °F 51.6 °F 30 in WSW 5.8 mph 5.8 mph 79 % 0 in
09:57 58.3 °F 51.4 °F 30 in West 5.8 mph 5.8 mph 78 % 0 in
10:02 59 °F 52.2 °F 30 in WSW 4 mph 4 mph 78 % 0 in
10:07 58.6 °F 51.4 °F 30 in West 8.1 mph 8.1 mph 77 % 0 in
10:12 59 °F 51.4 °F 30 in West 4.6 mph 4.6 mph 76 % 0 in
10:17 59.4 °F 51.8 °F 30 in WSW 4.6 mph 4.6 mph 76 % 0 in
10:22 60.1 °F 52.5 °F 30 in West 3.8 mph 3.8 mph 76 % 0 in
10:27 60.1 °F 52.5 °F 30 in WSW 8.1 mph 8.1 mph 76 % 0 in
10:32 61 °F 53.1 °F 30 in SSE 2.4 mph 2.4 mph 75 % 0 in
10:37 61 °F 52.5 °F 30 in NW 4.6 mph 4.6 mph 74 % 0 in
10:42 60.8 °F 52.5 °F 30 in West 8.1 mph 8.1 mph 74 % 0 in
10:47 61 °F 52 °F 30 in SW 6.9 mph 6.9 mph 72 % 0 in
10:52 60.8 °F 51.6 °F 30 in WSW 5.8 mph 5.8 mph 72 % 0 in
10:57 60.8 °F 51.1 °F 30 in West 5.8 mph 5.8 mph 70 % 0 in
11:02 61 °F 51.4 °F 30 in WSW 5.8 mph 5.8 mph 71 % 0 in
11:07 61 °F 51.1 °F 30 in WSW 5.8 mph 5.8 mph 70 % 0 in
11:12 61.2 °F 50.9 °F 30 in SW 3.5 mph 3.5 mph 69 % 0 in
11:17 61.9 °F 51.6 °F 30 in WSW 4.6 mph 4.6 mph 69 % 0 in
11:22 62.1 °F 52.2 °F 30 in SW 8.1 mph 8.1 mph 70 % 0 in
11:27 62.1 °F 51.4 °F 30 in WSW 5.8 mph 5.8 mph 68 % 0 in
11:32 62.6 °F 51.4 °F 30 in SW 4.3 mph 4.3 mph 67 % 0 in
11:37 62.8 °F 51.3 °F 30 in NNE 2.3 mph 2.3 mph 66 % 0 in
11:42 63.3 °F 51.8 °F 30 in NNE 4.6 mph 4.6 mph 66 % 0 in
11:47 63.1 °F 51.3 °F 30 in West 3.5 mph 3.5 mph 65 % 0 in
11:52 63.5 °F 51.1 °F 30 in NNE 3.5 mph 3.6 mph 64 % 0 in
11:57 63.5 °F 50.7 °F 30 in SSW 5.8 mph 5.8 mph 63 % 0 in
12:02 63.7 °F 50.7 °F 30 in NNW 3.5 mph 3.5 mph 63 % 0 in
12:07 64.2 °F 51.4 °F 30 in SE 5.4 mph 5.4 mph 63 % 0 in
12:12 64 °F 50.7 °F 30 in WSW 8.1 mph 8.1 mph 62 % 0 in
12:17 63.5 °F 49.5 °F 30 in West 11.5 mph 11.5 mph 60 % 0 in
12:22 63.7 °F 49.5 °F 30 in SW 7.8 mph 7.8 mph 60 % 0 in
12:27 64.2 °F 49.6 °F 30 in NNE 2.6 mph 3.1 mph 59 % 0 in
12:32 64 °F 49.5 °F 30 in West 8.1 mph 8.1 mph 59 % 0 in
12:37 64 °F 49.5 °F 30 in WSW 5.8 mph 6.7 mph 59 % 0 in
12:42 63.5 °F 48 °F 30 in SW 8.1 mph 8.1 mph 57 % 0 in
12:47 63.7 °F 48.2 °F 30 in NW 8.1 mph 8.1 mph 57 % 0 in
12:52 64 °F 48.9 °F 29.9 in West 5.8 mph 5.8 mph 58 % 0 in
12:57 64.2 °F 48.7 °F 29.9 in West 8.1 mph 8.1 mph 57 % 0 in
13:02 64.2 °F 48.2 °F 29.9 in WSW 6.9 mph 6.9 mph 56 % 0 in
13:07 64.4 °F 48.4 °F 29.9 in NNW 6.4 mph 7.4 mph 56 % 0 in
13:12 64.4 °F 48.4 °F 29.9 in SSE 11.5 mph 11.5 mph 56 % 0 in
13:17 64.4 °F 48.4 °F 29.9 in WSW 10.4 mph 10.4 mph 56 % 0 in
13:22 64.4 °F 47.8 °F 29.9 in West 6.9 mph 6.9 mph 55 % 0 in
13:28 64.6 °F 48 °F 29.9 in NNW 8.1 mph 8.1 mph 55 % 0 in
13:33 64.2 °F 47.1 °F 29.9 in SSW 11.5 mph 11.5 mph 54 % 0 in
13:38 64.2 °F 47.1 °F 30 in SSW 9.2 mph 9.2 mph 54 % 0 in
13:43 64 °F 47.1 °F 30 in SW 12.7 mph 12.7 mph 54 % 0 in
13:48 64.2 °F 47.1 °F 30 in West 5.8 mph 5.8 mph 54 % 0 in
13:53 64.6 °F 47.7 °F 30 in West 8.1 mph 8.1 mph 54 % 0 in
13:58 64.9 °F 47.8 °F 30 in WNW 5.8 mph 5.8 mph 54 % 0 in
14:03 64.9 °F 47.8 °F 30 in WNW 8.1 mph 8.1 mph 54 % 0 in
14:08 64.8 °F 47.7 °F 30 in South 8.1 mph 8.1 mph 54 % 0 in
14:13 64.4 °F 46.9 °F 30 in WSW 8.1 mph 8.1 mph 53 % 0 in
14:18 64.9 °F 47.8 °F 30 in WSW 4.6 mph 4.6 mph 54 % 0 in
14:25 65.5 °F 48.4 °F 29.9 in WSW 5.8 mph 5.8 mph 54 % 0 in
14:30 65.5 °F 48.4 °F 29.9 in WNW 5.8 mph 5.8 mph 54 % 0 in
14:35 65.5 °F 47.8 °F 29.9 in West 5.9 mph 5.9 mph 53 % 0 in
14:40 65.1 °F 47.1 °F 30 in West 10.4 mph 10.4 mph 52 % 0 in
14:45 65.1 °F 47.1 °F 30 in SW 5.8 mph 5.8 mph 52 % 0 in
14:50 65.7 °F 48 °F 30 in West 4.6 mph 4.6 mph 53 % 0 in
14:55 65.7 °F 47.5 °F 30 in West 8.1 mph 8.1 mph 52 % 0 in
15:00 65.5 °F 46.9 °F 30 in WSW 8.1 mph 8.1 mph 51 % 0 in
15:05 65.5 °F 46.9 °F 30 in WSW 6.9 mph 6.9 mph 51 % 0 in
15:10 65.5 °F 46.9 °F 30 in West 5.8 mph 5.8 mph 51 % 0 in
15:15 65.8 °F 47.1 °F 30 in WSW 6.9 mph 6.9 mph 51 % 0 in
15:20 66 °F 47.5 °F 30 in West 5.8 mph 5.8 mph 51 % 0 in
15:25 66.2 °F 46.9 °F 30 in SW 8.5 mph 8.5 mph 50 % 0 in
15:30 66.4 °F 47.1 °F 30 in NW 4.6 mph 4.6 mph 50 % 0 in
15:35 66.2 °F 46.9 °F 30 in WSW 4.6 mph 4.6 mph 50 % 0 in
15:40 66.4 °F 47.1 °F 29.9 in WSW 3.5 mph 3.5 mph 50 % 0 in
15:45 66.2 °F 46.6 °F 29.9 in WSW 5.8 mph 5.9 mph 49 % 0 in
15:50 65.8 °F 46.8 °F 29.9 in NW 4.6 mph 4.6 mph 50 % 0 in
15:55 65.8 °F 46.8 °F 30 in WSW 5.8 mph 5.8 mph 50 % 0 in
16:00 65.7 °F 46 °F 30 in SW 6.9 mph 6.9 mph 49 % 0 in
16:05 65.7 °F 46.6 °F 30 in SW 7.6 mph 7.6 mph 50 % 0 in
16:10 65.3 °F 45.7 °F 29.9 in WSW 8.1 mph 8.1 mph 49 % 0 in
16:15 65.1 °F 45.5 °F 29.9 in WNW 4.6 mph 4.6 mph 49 % 0 in
16:20 65.1 °F 45.5 °F 29.9 in WSW 3.5 mph 4.3 mph 49 % 0 in
16:25 64.9 °F 44.8 °F 29.9 in West 10.4 mph 10.4 mph 48 % 0 in
16:30 64.9 °F 45.3 °F 29.9 in West 6.9 mph 6.9 mph 49 % 0 in
16:35 64.8 °F 44.6 °F 29.9 in WSW 4.6 mph 4.6 mph 48 % 0 in
16:40 64.6 °F 44.4 °F 29.9 in WSW 5.8 mph 5.8 mph 48 % 0 in
16:41 64.6 °F 44.4 °F 29.9 in WSW 4.6 mph 4.6 mph 48 % 0 in
16:46 64.4 °F 44.2 °F 29.9 in West 8.1 mph 8.1 mph 48 % 0 in
16:51 64 °F 43.9 °F 29.9 in WSW 4.6 mph 4.6 mph 48 % 0 in
16:56 63.7 °F 43.5 °F 29.9 in SW 4.6 mph 4.6 mph 48 % 0 in
17:01 63.5 °F 43.3 °F 29.9 in WSW 5.8 mph 5.8 mph 48 % 0 in
17:06 63.1 °F 43.2 °F 30 in WSW 4.6 mph 4.6 mph 48 % 0 in
17:07 63 °F 43 °F 30 in SSW 4.6 mph 4.6 mph 48 % 0 in
17:12 62.6 °F 42.6 °F 30 in SW 5.8 mph 5.8 mph 48 % 0 in
17:17 62.1 °F 42.6 °F 30 in WNW 5.8 mph 5.9 mph 49 % 0 in
17:22 61.7 °F 42.3 °F 30 in West 3.8 mph 3.8 mph 49 % 0 in
17:27 61.5 °F 42.3 °F 30 in SW 3.5 mph 3.5 mph 49 % 0 in
17:32 61.2 °F 41.7 °F 30 in West 3.5 mph 3.5 mph 49 % 0 in
17:37 60.8 °F 41.5 °F 30 in WNW 2.3 mph 2.3 mph 49 % 0 in
17:42 60.4 °F 41.7 °F 30 in West 4.6 mph 4.6 mph 50 % 0 in
17:47 60.3 °F 41 °F 30 in WSW 5.8 mph 5.8 mph 49 % 0 in
17:52 60.1 °F 41.4 °F 30 in SW 5.9 mph 5.9 mph 50 % 0 in
17:57 59.9 °F 41.2 °F 30 in West 3.3 mph 3.3 mph 50 % 0 in
18:02 59.9 °F 41.2 °F 30 in WNW 4.6 mph 4.6 mph 50 % 0 in
18:07 59.9 °F 41.2 °F 30 in West 5.8 mph 5.8 mph 50 % 0 in
18:10 49.5 °F 35.2 °F 30 in West 3 mph 6 mph 58 % 0 in
18:12 59.7 °F 41 °F 30 in WNW 5.8 mph 5.8 mph 50 % 0 in
18:17 59.5 °F 40.8 °F 30 in West 5.8 mph 5.8 mph 50 % 0 in
18:20 49.5 °F 35.8 °F 30 in West 3 mph 7 mph 59 % 0 in
18:23 59.5 °F 40.8 °F 30 in WNW 8.1 mph 8.1 mph 50 % 0 in
18:28 59.7 °F 41 °F 30 in WSW 8.1 mph 8.1 mph 50 % 0 in
18:30 49.3 °F 35.4 °F 30.1 in WSW 1 mph 4 mph 59 % 0 in
18:33 59.5 °F 40.8 °F 30 in West 4.6 mph 4.6 mph 50 % 0 in
18:38 59.4 °F 40.6 °F 30 in WSW 6.2 mph 6.2 mph 50 % 0 in
18:40 48.9 °F 35.6 °F 30 in SW 1 mph 4 mph 60 % 0 in
18:43 59.5 °F 39.7 °F 30 in West 12.7 mph 12.7 mph 48 % 0 in
18:48 59.4 °F 39.7 °F 30 in West 7.1 mph 8.5 mph 48 % 0 in
18:50 48.4 °F 35.1 °F 30 in SW 1 mph 3 mph 60 % 0 in
18:53 59 °F 39.4 °F 30 in WSW 5.8 mph 5.8 mph 48 % 0 in
18:58 58.8 °F 39.2 °F 30 in SW 10.4 mph 10.4 mph 48 % 0 in
19:00 48.4 °F 35.1 °F 30.1 in WSW 3 mph 6 mph 60 % 0 in
19:03 58.5 °F 38.8 °F 30 in West 7.6 mph 7.6 mph 48 % 0 in
19:08 58.3 °F 38.7 °F 30 in West 8.1 mph 8.1 mph 48 % 0 in
19:10 48.4 °F 35.4 °F 30 in WSW 3 mph 6 mph 61 % 0 in
19:13 57.9 °F 38.3 °F 30 in WSW 9.2 mph 9.2 mph 48 % 0 in
19:18 57.7 °F 38.1 °F 30 in WSW 6.9 mph 6.9 mph 48 % 0 in
19:20 48.4 °F 35.4 °F 30 in WSW 2 mph 3 mph 61 % 0 in
19:23 57.6 °F 37.9 °F 30 in West 8.1 mph 8.1 mph 48 % 0 in
19:28 57.4 °F 37.8 °F 30 in WNW 13 mph 13 mph 48 % 0 in
19:30 48 °F 35.2 °F 30 in WSW 2 mph 3 mph 61 % 0 in
19:33 57.2 °F 37.8 °F 30 in WSW 10.5 mph 10.5 mph 48 % 0 in
19:38 57 °F 37.6 °F 30 in WSW 5.8 mph 5.8 mph 48 % 0 in
19:40 47.7 °F 34.9 °F 30 in WSW 2 mph 3 mph 61 % 0 in
19:48 56.5 °F 37 °F 30 in West 3.5 mph 3.5 mph 48 % 0 in
19:50 47.5 °F 35.1 °F 30 in WSW 1 mph 2 mph 62 % 0 in
19:53 56.1 °F 36.7 °F 30 in West 5.9 mph 5.9 mph 48 % 0 in
19:58 55.9 °F 37 °F 30 in SSW 5.8 mph 5.8 mph 49 % 0 in
20:00 47.3 °F 34.9 °F 30.1 in WSW 2 mph 4 mph 62 % 0 in
20:03 55.8 °F 36.9 °F 30 in West 8.1 mph 8.1 mph 49 % 0 in
20:08 55.6 °F 36.7 °F 30 in West 5.8 mph 5.8 mph 49 % 0 in
20:10 46.9 °F 35.1 °F 30.1 in WSW 1 mph 2 mph 63 % 0 in
20:13 55.4 °F 36.5 °F 30 in West 5.8 mph 5.8 mph 49 % 0 in
20:18 55.2 °F 36.3 °F 30 in WSW 10.4 mph 10.4 mph 49 % 0 in
20:20 46.8 °F 34.9 °F 30.1 in Calm   1 mph 63 % 0 in
20:23 55.2 °F 36.3 °F 30 in West 6.9 mph 6.9 mph 49 % 0 in
20:28 54.9 °F 36.7 °F 30 in WSW 5.8 mph 5.8 mph 50 % 0 in
20:30 46.4 °F 34.9 °F 30.1 in SSW 1 mph 2 mph 64 % 0 in
20:33 54.7 °F 36.3 °F 30 in WNW 4.6 mph 4.6 mph 50 % 0 in
20:38 54.5 °F 36.1 °F 30 in NW 4.6 mph 4.6 mph 50 % 0 in
20:40 46.4 °F 34.9 °F 30.1 in Calm   1 mph 64 % 0 in
20:43 54.3 °F 36.1 °F 30 in WNW 8.1 mph 8.1 mph 50 % 0 in
20:48 54.1 °F 36 °F 30 in NNE 5.8 mph 5.8 mph 50 % 0 in
20:53 54.1 °F 36 °F 30 in WNW 5.8 mph 5.8 mph 50 % 0 in
20:58 54 °F 36.1 °F 30 in SE 3.5 mph 3.5 mph 51 % 0 in
21:00 45.9 °F 34.3 °F 30.1 in Calm   3 mph 64 % 0 in
21:03 53.8 °F 36.1 °F 30 in WSW 8.1 mph 8.1 mph 51 % 0 in
21:08 53.6 °F 36 °F 30 in WSW 3.5 mph 3.5 mph 51 % 0 in
21:10 45.7 °F 34.2 °F 30.1 in Calm   2 mph 64 % 0 in
21:13 53.4 °F 35.8 °F 30 in SSW 4.6 mph 4.6 mph 51 % 0 in
21:18 53.2 °F 35.6 °F 30 in West 3.5 mph 3.5 mph 51 % 0 in
21:20 45.9 °F 34.3 °F 30.1 in WSW 1 mph 3 mph 64 % 0 in
21:23 53.2 °F 35.6 °F 30 in West 6.9 mph 6.9 mph 51 % 0 in
21:28 53.1 °F 35.4 °F 30 in NE 5.8 mph 5.8 mph 51 % 0 in
21:30 46.2 °F 34.3 °F 30.1 in West 3 mph 3 mph 63 % 0 in
21:33 52.9 °F 35.8 °F 30 in West 5.8 mph 5.8 mph 52 % 0 in
21:38 52.9 °F 35.8 °F 30 in West 5.8 mph 5.8 mph 52 % 0 in
21:40 46.8 °F 34.3 °F 30 in West 3 mph 5 mph 62 % 0 in
21:43 52.7 °F 35.6 °F 30 in WSW 4 mph 4 mph 52 % 0 in
21:48 52.5 °F 35.4 °F 30 in WSW 4.6 mph 4.6 mph 52 % 0 in
21:50 46.2 °F 34 °F 30 in WSW 6 mph 6 mph 62 % 0 in
21:53 52.5 °F 35.4 °F 30 in West 5.8 mph 5.8 mph 52 % 0 in
21:58 52.3 °F 35.2 °F 30 in SW 4.6 mph 4.6 mph 52 % 0 in
22:00 46.8 °F 34.3 °F 30 in WSW 5 mph 5 mph 62 % 0 in
22:03 52.3 °F 35.2 °F 30 in SW 5.8 mph 5.8 mph 52 % 0 in
22:08 52.2 °F 35.4 °F 30 in WNW 5.8 mph 5.8 mph 53 % 0 in
22:10 46.8 °F 34 °F 30 in WSW 3 mph 5 mph 61 % 0 in
22:13 52.2 °F 35.4 °F 30 in West 9.2 mph 9.2 mph 53 % 0 in
22:18 52 °F 35.4 °F 30 in NNW 5.8 mph 5.8 mph 53 % 0 in
22:20 46.2 °F 33.4 °F 30 in WSW 2 mph 3 mph 61 % 0 in
22:23 51.8 °F 35.2 °F 30.1 in South 8.1 mph 8.1 mph 53 % 0 in
22:28 51.8 °F 35.2 °F 30.1 in WSW 3.5 mph 3.5 mph 53 % 0 in
22:30 46.2 °F 34 °F 30 in WSW 3 mph 4 mph 62 % 0 in
22:33 51.6 °F 35.1 °F 30.1 in NNW 2.4 mph   53 % 0 in
22:38 51.4 °F 35.2 °F 30.1 in WSW 4.6 mph 4.6 mph 54 % 0 in
22:40 46.2 °F 34 °F 30 in WSW 3 mph 4 mph 62 % 0 in
22:43 51.4 °F 35.2 °F 30.1 in SW 2.3 mph 2.3 mph 54 % 0 in
22:48 51.4 °F 35.2 °F 30.1 in South 5.8 mph 5.8 mph 54 % 0 in
22:50 45.9 °F 33.6 °F 30 in WSW 3 mph 4 mph 62 % 0 in
22:53 51.3 °F 35.2 °F 30.1 in WSW 4.9 mph 4.9 mph 54 % 0 in
22:58 51.1 °F 35.1 °F 30.1 in WSW 4.6 mph 4.6 mph 54 % 0 in
23:00 45.7 °F 33.4 °F 30 in WSW 2 mph 4 mph 62 % 0 in
23:03 51.1 °F 35.1 °F 30.1 in NNE 4.6 mph 4.6 mph 54 % 0 in
23:08 50.9 °F 35.2 °F 30.1 in SW 3.5 mph 3.5 mph 55 % 0 in
23:10 45.5 °F 33.3 °F 30 in WSW 3 mph 4 mph 62 % 0 in
23:13 50.9 °F 35.2 °F 30.1 in SW 3.5 mph 3.5 mph 55 % 0 in
23:18 50.7 °F 35.1 °F 30.1 in West 8.1 mph 8.1 mph 55 % 0 in
23:20 45.5 °F 33.3 °F 30 in WSW 5 mph 5 mph 62 % 0 in
23:23 50.7 °F 35.1 °F 30.1 in WSW 4.9 mph 4.9 mph 55 % 0 in
23:28 50.5 °F 35.1 °F 30.1 in WSW 6.9 mph 6.9 mph 55 % 0 in
23:30 45.5 °F 33.3 °F 30 in WSW 6 mph 6 mph 62 % 0 in
23:33 50.4 °F 35.2 °F 30.1 in West 5.8 mph 5.8 mph 56 % 0 in
23:38 50.2 °F 35.1 °F 30.1 in WSW 5.8 mph 5.8 mph 56 % 0 in
23:40 45.1 °F 32.9 °F 30 in WSW 3 mph 4 mph 62 % 0 in
23:43 50 °F 35.4 °F 30.1 in SW 5.8 mph 5.8 mph 57 % 0 in
23:48 49.8 °F 35.2 °F 30.1 in WNW 4.6 mph 4.6 mph 57 % 0 in
23:50 45.3 °F 33.1 °F 30 in West 5 mph 6 mph 62 % 0 in
23:53 49.8 °F 35.2 °F 30 in WSW 5.8 mph 5.8 mph 57 % 0 in
23:58 49.8 °F 35.6 °F 30 in WSW 4.6 mph 4.6 mph 58 % 0 in
Meteo Sesrovires
Elogis d' Weather Underground - 4.25 mb

Guio original per  Jim McMurry - jmcmurry@mwt.net Adaptat per a la plantilla per  Wim van der Kuil - Leuven-Template.eu

Trobareu la nostra informacio del temps tambe a:

Weather Underground

AWEKAS